createdAt,value
2022-08-09T00:00:23.403Z,50.81
2022-08-09T00:02:54.482Z,50.80
2022-08-09T00:06:19.549Z,51.08
2022-08-09T00:08:32.443Z,50.71
2022-08-09T00:11:24.332Z,50.71
2022-08-09T00:13:55.695Z,50.68
2022-08-09T00:16:38.321Z,50.21
2022-08-09T00:19:11.779Z,50.90
2022-08-09T00:21:43.150Z,51.21
2022-08-09T00:24:27.579Z,50.83
2022-08-09T00:27:00.686Z,50.94
2022-08-09T00:30:16.565Z,51.52
2022-08-09T00:32:35.737Z,51.67
2022-08-09T00:35:06.262Z,51.94
2022-08-09T00:37:37.686Z,52.49
2022-08-09T00:40:16.932Z,51.99
2022-08-09T00:44:20.482Z,52.71
2022-08-09T00:45:50.462Z,52.73
2022-08-09T00:48:21.387Z,53.08
2022-08-09T00:50:52.689Z,52.82
2022-08-09T00:53:24.300Z,53.08
2022-08-09T00:56:03.991Z,53.48
2022-08-09T00:58:39.205Z,53.56
2022-08-09T01:01:16.219Z,53.89
2022-08-09T01:03:57.565Z,54.10
2022-08-09T01:06:53.799Z,54.24
2022-08-09T01:09:36.545Z,53.97
2022-08-09T01:12:15.840Z,54.26
2022-08-09T01:14:55.540Z,54.44
2022-08-09T01:17:34.165Z,54.89
2022-08-09T01:20:09.467Z,55.55
2022-08-09T01:22:54.819Z,55.17
2022-08-09T01:25:42.018Z,54.64
2022-08-09T01:28:22.731Z,54.90
2022-08-09T01:31:00.659Z,54.69
2022-08-09T01:33:34.274Z,54.79
2022-08-09T01:36:08.094Z,54.63
2022-08-09T01:38:44.340Z,54.77
2022-08-09T01:41:25.930Z,54.46
2022-08-09T01:44:01.868Z,54.60
2022-08-09T01:46:35.384Z,54.77
2022-08-09T01:49:10.177Z,54.93
2022-08-09T01:51:54.317Z,54.64
2022-08-09T01:54:27.493Z,54.90
2022-08-09T01:57:04.045Z,54.96
2022-08-09T01:59:40.949Z,54.57
2022-08-09T02:02:29.953Z,54.82
2022-08-09T02:05:15.859Z,54.29
2022-08-09T02:08:39.998Z,54.23
2022-08-09T02:10:50.977Z,54.49
2022-08-09T02:13:26.145Z,55.50
2022-08-09T02:16:16.005Z,55.38
2022-08-09T02:18:47.724Z,55.94
2022-08-09T02:21:24.205Z,56.45
2022-08-09T02:24:01.979Z,56.06
2022-08-09T02:26:35.922Z,56.27
2022-08-09T02:29:16.513Z,56.91
2022-08-09T02:31:50.733Z,56.92
2022-08-09T02:34:40.851Z,56.94
2022-08-09T02:37:17.796Z,56.89
2022-08-09T02:39:54.986Z,57.06
2022-08-09T02:42:29.651Z,56.50
2022-08-09T02:45:04.832Z,56.53
2022-08-09T02:47:57.351Z,56.79
2022-08-09T02:50:34.426Z,56.83
2022-08-09T02:53:06.446Z,56.83
2022-08-09T02:55:46.773Z,57.00
2022-08-09T02:58:32.794Z,57.04
2022-08-09T03:01:11.353Z,57.08
2022-08-09T03:04:17.980Z,57.17
2022-08-09T03:06:40.977Z,57.17
2022-08-09T03:09:13.086Z,57.00
2022-08-09T03:12:09.660Z,57.13
2022-08-09T03:14:36.539Z,57.45
2022-08-09T03:17:07.439Z,57.27
2022-08-09T03:19:58.440Z,56.76
2022-08-09T03:22:42.040Z,57.15
2022-08-09T03:25:26.329Z,56.61
2022-08-09T03:28:11.253Z,56.66
2022-08-09T03:30:43.524Z,56.54
2022-08-09T03:33:19.274Z,56.47
2022-08-09T03:36:15.574Z,56.33
2022-08-09T03:38:44.864Z,56.27
2022-08-09T03:41:18.250Z,56.95
2022-08-09T03:44:03.497Z,56.63
2022-08-09T03:46:39.524Z,56.11
2022-08-09T03:49:11.867Z,56.12
2022-08-09T03:51:58.742Z,56.06
2022-08-09T03:54:34.454Z,55.91
2022-08-09T03:57:18.649Z,56.17
2022-08-09T03:59:54.983Z,56.18
2022-08-09T04:02:28.892Z,55.99
2022-08-09T04:05:06.255Z,55.41
2022-08-09T04:07:53.029Z,55.78
2022-08-09T04:10:28.764Z,55.92
2022-08-09T04:13:03.699Z,55.53
2022-08-09T04:15:40.672Z,55.56
2022-08-09T04:18:25.279Z,55.99
2022-08-09T04:20:55.597Z,55.04
2022-08-09T04:23:28.364Z,54.54
2022-08-09T04:25:58.671Z,54.59
2022-08-09T04:28:33.688Z,54.12
2022-08-09T04:31:13.110Z,54.17
2022-08-09T04:33:52.381Z,53.70
2022-08-09T04:36:28.733Z,53.72
2022-08-09T04:39:04.553Z,53.26
2022-08-09T04:41:43.692Z,53.32
2022-08-09T04:44:14.493Z,53.10
2022-08-09T04:46:58.669Z,53.16
2022-08-09T04:49:52.281Z,53.36
2022-08-09T04:52:26.954Z,53.18
2022-08-09T04:55:00.696Z,53.71
2022-08-09T04:57:58.904Z,53.35
2022-08-09T05:00:22.431Z,52.96
2022-08-09T05:02:53.842Z,52.76
2022-08-09T05:05:32.230Z,52.42
2022-08-09T05:08:15.089Z,51.34
2022-08-09T05:10:48.178Z,51.35
2022-08-09T05:13:18.578Z,50.75
2022-08-09T05:15:52.288Z,50.89
2022-08-09T05:18:39.294Z,50.01
2022-08-09T05:21:24.256Z,50.56
2022-08-09T05:24:00.423Z,49.71
2022-08-09T05:26:45.815Z,49.64
2022-08-09T05:29:21.704Z,49.29
2022-08-09T05:31:57.065Z,49.62
2022-08-09T05:34:31.456Z,49.53
2022-08-09T05:37:05.179Z,49.24
2022-08-09T05:39:42.566Z,49.83
2022-08-09T05:42:21.511Z,48.88
2022-08-09T05:44:53.358Z,49.27
2022-08-09T05:47:25.199Z,48.74
2022-08-09T05:50:25.854Z,48.37
2022-08-09T05:52:52.105Z,48.98
2022-08-09T05:55:24.476Z,49.54
2022-08-09T05:57:58.450Z,48.77
2022-08-09T06:00:30.669Z,48.51
2022-08-09T06:03:10.600Z,48.73
2022-08-09T06:05:57.245Z,47.95
2022-08-09T06:08:31.357Z,46.91
2022-08-09T06:11:01.757Z,44.54
2022-08-09T06:13:49.514Z,42.32
2022-08-09T06:16:19.661Z,41.22
2022-08-09T06:18:52.790Z,40.08
2022-08-09T06:21:23.931Z,39.33
2022-08-09T06:24:01.123Z,38.98
2022-08-09T06:26:32.474Z,38.63
2022-08-09T06:29:05.655Z,37.06
2022-08-09T06:31:39.938Z,36.32
2022-08-09T06:34:29.880Z,36.31
2022-08-09T06:37:01.080Z,35.79
2022-08-09T06:39:48.435Z,34.89
2022-08-09T06:42:24.978Z,34.58
2022-08-09T06:45:52.063Z,35.03
2022-08-09T06:48:00.766Z,34.11
2022-08-09T06:50:32.056Z,34.48
2022-08-09T06:53:04.878Z,33.89
2022-08-09T06:55:35.814Z,34.88
2022-08-09T06:58:08.025Z,36.07
2022-08-09T07:01:01.187Z,37.23
2022-08-09T07:03:33.921Z,36.42
2022-08-09T07:06:10.695Z,37.38
2022-08-09T07:08:41.903Z,36.32
2022-08-09T07:11:17.673Z,36.87
2022-08-09T07:14:05.077Z,36.96
2022-08-09T07:16:44.752Z,36.05
2022-08-09T07:19:23.508Z,35.28
2022-08-09T07:21:57.315Z,36.56
2022-08-09T07:24:31.490Z,35.29
2022-08-09T07:27:04.410Z,34.58
2022-08-09T07:29:43.076Z,34.39
2022-08-09T07:32:15.886Z,34.57
2022-08-09T07:34:48.643Z,35.94
2022-08-09T07:37:22.408Z,35.60
2022-08-09T07:39:54.636Z,36.90
2022-08-09T07:42:32.538Z,36.58
2022-08-09T07:45:15.005Z,35.79
2022-08-09T07:48:01.454Z,34.05
2022-08-09T07:50:36.637Z,35.51
2022-08-09T07:53:08.985Z,34.70
2022-08-09T07:56:02.810Z,34.92
2022-08-09T07:58:29.663Z,34.70
2022-08-09T08:01:06.632Z,32.14
2022-08-09T08:03:44.286Z,31.77
2022-08-09T08:06:21.192Z,31.96
2022-08-09T08:09:03.814Z,31.50
2022-08-09T08:12:24.861Z,31.32
2022-08-09T08:14:28.502Z,30.83
2022-08-09T08:17:07.728Z,30.72
2022-08-09T08:19:46.495Z,32.06
2022-08-09T08:22:17.013Z,31.10
2022-08-09T08:24:49.207Z,31.12
2022-08-09T08:27:21.195Z,30.51
2022-08-09T08:29:57.455Z,30.33
2022-08-09T08:32:28.899Z,31.29
2022-08-09T08:35:03.563Z,32.21
2022-08-09T08:37:41.645Z,32.81
2022-08-09T08:40:24.663Z,32.07
2022-08-09T08:43:00.100Z,32.00
2022-08-09T08:45:37.237Z,31.07
2022-08-09T08:48:10.147Z,30.12
2022-08-09T08:50:45.442Z,28.90
2022-08-09T08:53:21.587Z,28.83
2022-08-09T08:55:52.824Z,29.21
2022-08-09T08:58:27.396Z,30.95
2022-08-09T09:00:59.889Z,31.69
2022-08-09T09:03:37.523Z,31.87
2022-08-09T09:06:14.219Z,31.44
2022-08-09T09:08:52.856Z,31.10
2022-08-09T09:11:33.742Z,32.13
2022-08-09T09:14:16.091Z,32.06
2022-08-09T09:16:46.595Z,31.46
2022-08-09T09:19:40.862Z,32.06
2022-08-09T09:22:16.834Z,32.33
2022-08-09T09:26:01.464Z,32.50
2022-08-09T09:28:04.473Z,30.96
2022-08-09T09:30:54.457Z,29.83
2022-08-09T09:33:44.965Z,31.61
2022-08-09T09:36:20.216Z,31.05
2022-08-09T09:38:57.382Z,32.42
2022-08-09T09:41:48.892Z,31.78
2022-08-09T09:44:31.456Z,31.37
2022-08-09T09:47:09.180Z,31.80
2022-08-09T09:50:13.864Z,31.71
2022-08-09T09:52:36.693Z,31.46
2022-08-09T09:55:23.927Z,31.07
2022-08-09T09:58:17.267Z,31.10
2022-08-09T10:00:54.545Z,32.59
2022-08-09T10:03:57.992Z,32.50
2022-08-09T10:06:32.528Z,31.71
2022-08-09T10:09:11.895Z,31.44
2022-08-09T10:12:14.355Z,31.30
2022-08-09T10:14:53.166Z,30.88
2022-08-09T10:17:50.399Z,31.23
2022-08-09T10:20:33.119Z,29.96
2022-08-09T10:23:21.884Z,28.88
2022-08-09T10:26:06.517Z,27.80
2022-08-09T10:28:49.096Z,28.62
2022-08-09T10:34:33.570Z,30.27
2022-08-09T10:37:09.797Z,30.60
2022-08-09T10:39:48.991Z,29.87
2022-08-09T10:42:20.233Z,30.06
2022-08-09T10:45:04.214Z,30.13
2022-08-09T10:48:16.214Z,29.65
2022-08-09T10:50:58.441Z,29.86
2022-08-09T10:53:46.949Z,29.21
2022-08-09T10:56:26.455Z,28.97
2022-08-09T10:58:59.012Z,28.49
2022-08-09T11:03:14.214Z,28.61
2022-08-09T11:04:34.856Z,29.59
2022-08-09T11:07:54.940Z,29.73
2022-08-09T11:10:56.297Z,29.89
2022-08-09T11:13:49.938Z,30.12
2022-08-09T11:16:37.389Z,30.33
2022-08-09T11:19:11.934Z,30.44
2022-08-09T11:22:16.767Z,30.37
2022-08-09T11:25:08.230Z,30.44
2022-08-09T11:27:52.841Z,29.93
2022-08-09T11:30:37.815Z,30.79
2022-08-09T11:33:13.988Z,29.90
2022-08-09T11:35:57.578Z,29.63
2022-08-09T11:38:33.110Z,29.22
2022-08-09T11:41:38.362Z,28.75
2022-08-09T11:44:11.289Z,28.25
2022-08-09T11:46:57.758Z,27.95
2022-08-09T11:50:56.475Z,28.32
2022-08-09T11:53:59.238Z,27.20
2022-08-09T11:56:41.381Z,28.62
2022-08-09T11:59:14.369Z,29.55
2022-08-09T12:02:17.426Z,29.42
2022-08-09T12:04:37.290Z,29.50
2022-08-09T12:07:08.939Z,28.71
2022-08-09T12:09:50.946Z,28.89
2022-08-09T12:12:28.692Z,29.05
2022-08-09T12:15:08.187Z,28.66
2022-08-09T12:17:43.519Z,28.99
2022-08-09T12:20:21.413Z,28.43
2022-08-09T12:22:56.370Z,28.82
2022-08-09T12:25:36.795Z,28.36
2022-08-09T12:29:11.405Z,28.18
2022-08-09T12:31:11.240Z,28.05
2022-08-09T12:34:01.028Z,28.05
2022-08-09T12:36:34.047Z,27.75
2022-08-09T12:39:17.211Z,27.98
2022-08-09T12:41:50.661Z,27.64
2022-08-09T12:44:24.364Z,27.89
2022-08-09T12:46:55.104Z,27.60
2022-08-09T12:49:26.542Z,28.62
2022-08-09T12:52:02.454Z,28.96
2022-08-09T12:56:12.926Z,29.54
2022-08-09T12:57:47.088Z,29.21
2022-08-09T13:00:25.140Z,29.21
2022-08-09T13:02:57.781Z,29.66
2022-08-09T13:05:35.523Z,29.40
2022-08-09T13:08:39.796Z,30.21
2022-08-09T13:11:22.691Z,30.14
2022-08-09T13:14:41.145Z,30.28
2022-08-09T13:16:54.774Z,30.69
2022-08-09T13:20:06.831Z,30.61
2022-08-09T13:22:36.844Z,30.44
2022-08-09T13:25:15.062Z,29.83
2022-08-09T13:27:54.663Z,29.69
2022-08-09T13:30:50.177Z,29.80
2022-08-09T13:33:51.604Z,29.75
2022-08-09T13:36:24.698Z,30.18
2022-08-09T13:41:17.596Z,30.87
2022-08-09T13:42:03.814Z,31.33
2022-08-09T13:44:34.849Z,30.63
2022-08-09T13:47:29.404Z,30.47
2022-08-09T13:50:02.326Z,30.34
2022-08-09T13:52:34.018Z,29.85
2022-08-09T13:55:07.410Z,30.20
2022-08-09T13:57:55.927Z,29.81
2022-08-09T14:00:30.383Z,29.96
2022-08-09T14:03:57.963Z,29.61
2022-08-09T14:06:01.414Z,29.62
2022-08-09T14:08:33.771Z,29.78
2022-08-09T14:11:04.101Z,30.70
2022-08-09T14:14:24.175Z,31.01
2022-08-09T14:16:40.184Z,31.36
2022-08-09T14:19:13.247Z,31.13
2022-08-09T14:21:43.408Z,30.71
2022-08-09T14:24:18.685Z,30.51
2022-08-09T14:26:53.574Z,30.60
2022-08-09T14:29:46.394Z,30.88
2022-08-09T14:32:16.302Z,30.85
2022-08-09T14:34:55.929Z,31.10
2022-08-09T14:37:28.589Z,31.45
2022-08-09T14:40:13.280Z,31.07
2022-08-09T14:42:43.693Z,30.85
2022-08-09T14:46:56.092Z,31.06
2022-08-09T14:48:06.568Z,30.84
2022-08-09T14:50:40.705Z,31.52
2022-08-09T14:53:16.750Z,31.19
2022-08-09T14:55:50.516Z,31.07
2022-08-09T14:58:21.226Z,31.29
2022-08-09T15:00:52.620Z,31.27
2022-08-09T15:03:28.611Z,30.63
2022-08-09T15:06:03.935Z,31.79
2022-08-09T15:08:34.446Z,32.20
2022-08-09T15:11:05.233Z,32.21
2022-08-09T15:13:48.016Z,32.48
2022-08-09T15:16:30.481Z,32.73
2022-08-09T15:19:05.650Z,32.07
2022-08-09T15:22:00.827Z,32.60
2022-08-09T15:24:32.858Z,33.00
2022-08-09T15:27:03.000Z,32.51
2022-08-09T15:30:48.655Z,32.46
2022-08-09T15:32:28.400Z,32.57
2022-08-09T15:35:02.017Z,32.17
2022-08-09T15:38:10.953Z,32.92
2022-08-09T15:40:44.288Z,32.31
2022-08-09T15:43:14.830Z,32.56
2022-08-09T15:46:07.703Z,32.90
2022-08-09T15:48:36.395Z,32.47
2022-08-09T15:51:30.196Z,32.29
2022-08-09T15:54:03.530Z,32.30
2022-08-09T15:56:38.290Z,32.83
2022-08-09T15:59:08.417Z,32.53
2022-08-09T16:01:38.870Z,32.28
2022-08-09T16:04:13.752Z,32.29
2022-08-09T16:06:44.812Z,32.65
2022-08-09T16:09:32.577Z,32.13
2022-08-09T16:12:14.090Z,32.38
2022-08-09T16:14:46.014Z,32.43
2022-08-09T16:17:16.940Z,32.48
2022-08-09T16:19:49.650Z,32.50
2022-08-09T16:22:35.425Z,32.25
2022-08-09T16:25:10.435Z,32.26
2022-08-09T16:27:41.369Z,32.58
2022-08-09T16:30:28.386Z,32.29
2022-08-09T16:33:12.190Z,32.29
2022-08-09T16:35:56.123Z,32.45
2022-08-09T16:38:29.829Z,32.39
2022-08-09T16:41:04.151Z,32.66
2022-08-09T16:43:40.339Z,31.93
2022-08-09T16:46:12.400Z,32.46
2022-08-09T16:48:56.898Z,31.69
2022-08-09T16:51:32.326Z,31.72
2022-08-09T16:54:26.218Z,31.05
2022-08-09T16:56:58.030Z,31.29
2022-08-09T16:59:28.428Z,31.06
2022-08-09T17:02:05.269Z,30.88
2022-08-09T17:04:38.339Z,30.91
2022-08-09T17:08:43.135Z,30.58
2022-08-09T17:10:03.819Z,30.13
2022-08-09T17:12:37.045Z,30.61
2022-08-09T17:15:30.605Z,30.92
2022-08-09T17:18:00.354Z,30.54
2022-08-09T17:20:37.544Z,30.15
2022-08-09T17:23:10.442Z,30.86
2022-08-09T17:25:45.096Z,30.71
2022-08-09T17:28:29.001Z,30.58
2022-08-09T17:30:59.143Z,30.91
2022-08-09T17:33:29.336Z,30.90
2022-08-09T17:36:06.654Z,30.94
2022-08-09T17:38:41.326Z,31.55
2022-08-09T17:41:38.680Z,31.19
2022-08-09T17:44:38.892Z,31.89
2022-08-09T17:47:04.121Z,31.42
2022-08-09T17:49:34.823Z,31.29
2022-08-09T17:52:05.500Z,30.99
2022-08-09T17:54:36.730Z,31.51
2022-08-09T17:57:20.516Z,31.40
2022-08-09T18:00:05.440Z,31.42
2022-08-09T18:02:41.371Z,31.22
2022-08-09T18:05:20.636Z,31.29
2022-08-09T18:07:50.821Z,31.64
2022-08-09T18:10:21.633Z,31.60
2022-08-09T18:13:43.241Z,31.62
2022-08-09T18:16:05.037Z,32.10
2022-08-09T18:18:36.286Z,31.58
2022-08-09T18:21:23.087Z,31.81
2022-08-09T18:24:11.115Z,32.00
2022-08-09T18:26:46.609Z,31.89
2022-08-09T18:30:40.546Z,32.24
2022-08-09T18:32:13.132Z,32.17
2022-08-09T18:34:46.225Z,32.37
2022-08-09T18:37:48.118Z,32.16
2022-08-09T18:40:11.720Z,32.13
2022-08-09T18:42:44.385Z,32.61
2022-08-09T18:45:21.571Z,32.57
2022-08-09T18:48:09.197Z,32.04
2022-08-09T18:50:42.697Z,32.31
2022-08-09T18:53:16.362Z,32.24
2022-08-09T18:55:56.900Z,32.92
2022-08-09T18:58:35.886Z,32.66
2022-08-09T19:01:09.411Z,32.59
2022-08-09T19:04:01.210Z,32.66
2022-08-09T19:06:32.917Z,33.61
2022-08-09T19:09:03.569Z,33.22
2022-08-09T19:11:35.207Z,33.31
2022-08-09T19:14:08.370Z,33.36
2022-08-09T19:16:38.804Z,34.16
2022-08-09T19:19:25.725Z,33.67
2022-08-09T19:22:04.595Z,33.99
2022-08-09T19:25:09.081Z,34.28
2022-08-09T19:27:28.773Z,34.44
2022-08-09T19:30:23.141Z,33.94
2022-08-09T19:32:53.161Z,33.83
2022-08-09T19:35:26.861Z,33.93
2022-08-09T19:37:57.835Z,34.16
2022-08-09T19:40:34.211Z,33.78
2022-08-09T19:43:10.244Z,33.82
2022-08-09T19:45:57.348Z,33.83
2022-08-09T19:49:00.186Z,33.94
2022-08-09T19:51:24.064Z,34.03
2022-08-09T19:53:54.250Z,34.05
2022-08-09T19:56:28.534Z,34.61
2022-08-09T19:59:18.362Z,34.42
2022-08-09T20:02:00.534Z,34.78
2022-08-09T20:04:40.397Z,34.90
2022-08-09T20:07:20.988Z,34.77
2022-08-09T20:09:52.212Z,34.90
2022-08-09T20:12:37.738Z,35.01
2022-08-09T20:16:36.898Z,36.04
2022-08-09T20:18:08.220Z,35.64
2022-08-09T20:20:38.721Z,35.55
2022-08-09T20:23:11.496Z,35.85
2022-08-09T20:25:52.607Z,35.91
2022-08-09T20:28:34.184Z,35.72
2022-08-09T20:31:05.237Z,36.18
2022-08-09T20:33:44.129Z,36.58
2022-08-09T20:36:15.454Z,35.94
2022-08-09T20:39:18.822Z,35.72
2022-08-09T20:41:43.469Z,35.89
2022-08-09T20:44:13.694Z,36.31
2022-08-09T20:46:44.371Z,36.42
2022-08-09T20:49:16.095Z,36.11
2022-08-09T20:51:50.849Z,36.61
2022-08-09T20:54:24.696Z,36.17
2022-08-09T20:56:55.008Z,36.11
2022-08-09T21:00:20.569Z,36.31
2022-08-09T21:02:18.459Z,36.58
2022-08-09T21:05:56.697Z,36.82
2022-08-09T21:07:40.616Z,36.58
2022-08-09T21:10:17.186Z,36.71
2022-08-09T21:15:34.206Z,36.90
2022-08-09T21:18:23.352Z,37.05
2022-08-09T21:20:56.306Z,37.34
2022-08-09T21:23:50.964Z,37.13
2022-08-09T21:26:19.495Z,37.61
2022-08-09T21:28:55.969Z,38.37
2022-08-09T21:31:48.880Z,38.66
2022-08-09T21:34:28.454Z,38.30
2022-08-09T21:36:59.238Z,38.17
2022-08-09T21:39:42.201Z,38.40
2022-08-09T21:42:15.537Z,38.66
2022-08-09T21:44:46.555Z,38.46
2022-08-09T21:47:18.549Z,38.92
2022-08-09T21:49:50.905Z,39.15
2022-08-09T21:52:23.018Z,39.06
2022-08-09T21:55:03.394Z,38.80
2022-08-09T21:57:59.071Z,38.84
2022-08-09T22:00:32.223Z,38.70
2022-08-09T22:03:05.828Z,38.50
2022-08-09T22:05:42.465Z,38.34
2022-08-09T22:08:16.643Z,38.55
2022-08-09T22:11:04.808Z,38.76
2022-08-09T22:13:43.354Z,38.44
2022-08-09T22:16:14.919Z,38.66
2022-08-09T22:18:54.253Z,38.63
2022-08-09T22:21:45.407Z,38.28
2022-08-09T22:24:24.142Z,38.64
2022-08-09T22:26:55.599Z,39.25
2022-08-09T22:29:46.456Z,39.09
2022-08-09T22:32:29.709Z,39.85
2022-08-09T22:35:06.984Z,39.68
2022-08-09T22:38:07.385Z,39.59
2022-08-09T22:40:38.530Z,40.26
2022-08-09T22:43:16.984Z,39.73
2022-08-09T22:48:13.373Z,40.35
2022-08-09T22:48:51.934Z,40.32
2022-08-09T22:51:24.062Z,40.09
2022-08-09T22:54:02.389Z,40.16
2022-08-09T22:56:34.591Z,40.42
2022-08-09T22:59:56.884Z,40.83
2022-08-09T23:01:59.257Z,40.81
2022-08-09T23:04:32.883Z,40.59
2022-08-09T23:07:16.255Z,41.22
2022-08-09T23:09:48.054Z,41.30
2022-08-09T23:12:18.166Z,40.84
2022-08-09T23:14:48.317Z,41.21
2022-08-09T23:17:26.955Z,41.91
2022-08-09T23:20:07.244Z,41.43
2022-08-09T23:22:38.524Z,41.72
2022-08-09T23:25:11.108Z,41.19
2022-08-09T23:28:14.282Z,41.53
2022-08-09T23:30:31.625Z,41.42
2022-08-09T23:33:04.403Z,42.06
2022-08-09T23:36:05.706Z,42.03
2022-08-09T23:38:24.991Z,42.30
2022-08-09T23:40:56.535Z,42.22
2022-08-09T23:43:26.676Z,42.33
2022-08-09T23:45:56.830Z,42.49
2022-08-09T23:48:29.612Z,43.03
2022-08-09T23:50:59.830Z,42.75
2022-08-09T23:53:36.051Z,42.83
2022-08-09T23:56:09.122Z,42.87
2022-08-09T23:58:39.662Z,42.97
